createdAt,value
2018-12-25T00:02:46.577Z,5.55
2018-12-25T00:05:34.975Z,5.54
2018-12-25T00:11:16.559Z,5.58
2018-12-25T00:14:06.169Z,5.62
2018-12-25T00:16:54.449Z,5.68
2018-12-25T00:19:42.489Z,5.72
2018-12-25T00:22:30.565Z,5.73
2018-12-25T00:25:19.017Z,5.74
2018-12-25T00:28:07.069Z,5.78
2018-12-25T00:30:55.123Z,5.83
2018-12-25T00:36:36.843Z,5.82
2018-12-25T00:39:07.317Z,5.84
2018-12-25T00:41:55.354Z,5.89
2018-12-25T00:44:43.436Z,5.87
2018-12-25T00:47:31.486Z,5.80
2018-12-25T00:50:19.581Z,5.81
2018-12-25T00:53:07.845Z,5.78
2018-12-25T00:55:55.928Z,5.79
2018-12-25T00:58:43.970Z,5.80
2018-12-25T01:01:32.050Z,5.81
2018-12-25T01:04:20.153Z,5.81
2018-12-25T01:07:08.208Z,5.79
2018-12-25T01:09:56.565Z,5.78
2018-12-25T01:15:51.606Z,5.80
2018-12-25T01:18:39.701Z,5.84
2018-12-25T01:21:27.786Z,5.87
2018-12-25T01:24:15.829Z,5.89
2018-12-25T01:27:03.761Z,5.93
2018-12-25T01:29:51.842Z,5.96
2018-12-25T01:32:40.227Z,5.99
2018-12-25T01:35:28.165Z,5.98
2018-12-25T01:38:16.201Z,6.02
2018-12-25T01:41:04.286Z,6.00
2018-12-25T01:46:46.673Z,6.00
2018-12-25T01:49:35.039Z,5.97
2018-12-25T01:52:23.162Z,6.02
2018-12-25T01:55:11.246Z,6.00
2018-12-25T01:57:59.330Z,5.95
2018-12-25T02:00:47.457Z,5.95
2018-12-25T02:03:35.535Z,5.89
2018-12-25T02:06:23.885Z,5.85
2018-12-25T02:09:11.922Z,5.84
2018-12-25T02:11:59.877Z,5.79
2018-12-25T02:14:47.852Z,5.79
2018-12-25T02:17:35.934Z,5.70
2018-12-25T02:20:44.666Z,5.63
2018-12-25T02:23:32.971Z,5.61
2018-12-25T02:29:15.118Z,5.60
2018-12-25T02:35:10.607Z,5.55
2018-12-25T02:37:58.648Z,5.62
2018-12-25T02:40:46.744Z,5.80
2018-12-25T02:43:34.675Z,5.86
2018-12-25T02:46:03.647Z,5.89
2018-12-25T02:48:51.732Z,5.86
2018-12-25T02:51:39.631Z,5.90
2018-12-25T02:54:27.709Z,5.87
2018-12-25T02:57:15.749Z,5.86
2018-12-25T03:00:03.682Z,5.85
2018-12-25T03:02:51.721Z,5.86
2018-12-25T03:05:39.694Z,5.85
2018-12-25T03:08:27.597Z,5.91
2018-12-25T03:11:15.683Z,5.95
2018-12-25T03:14:03.721Z,5.93
2018-12-25T03:16:51.795Z,5.98
2018-12-25T03:19:39.692Z,5.96
2018-12-25T03:22:27.774Z,5.95
2018-12-25T03:25:15.669Z,6.00
2018-12-25T03:28:03.930Z,5.96
2018-12-25T03:33:59.061Z,5.96
2018-12-25T03:39:40.697Z,5.95
2018-12-25T03:42:28.773Z,5.95
2018-12-25T03:45:16.673Z,5.94
2018-12-25T03:48:04.750Z,5.96
2018-12-25T03:50:53.123Z,5.98
2018-12-25T03:53:41.236Z,5.98
2018-12-25T03:56:29.273Z,6.00
2018-12-25T03:59:17.222Z,5.99
2018-12-25T04:02:05.338Z,6.02
2018-12-25T04:04:53.411Z,6.03
2018-12-25T04:07:41.480Z,6.02
2018-12-25T04:10:29.570Z,6.06
2018-12-25T04:13:17.469Z,6.04
2018-12-25T04:16:05.565Z,6.08
2018-12-25T04:18:53.657Z,6.15
2018-12-25T04:21:41.706Z,6.17
2018-12-25T04:24:29.790Z,6.17
2018-12-25T04:27:17.862Z,6.25
2018-12-25T04:30:05.939Z,6.27
2018-12-25T04:32:54.001Z,6.31
2018-12-25T04:35:42.103Z,6.34
2018-12-25T04:38:30.173Z,6.33
2018-12-25T04:41:18.245Z,6.33
2018-12-25T04:44:06.279Z,6.36
2018-12-25T04:46:54.351Z,6.35
2018-12-25T04:49:42.773Z,6.40
2018-12-25T04:52:30.802Z,6.40
2018-12-25T04:55:18.887Z,6.42
2018-12-25T04:58:06.988Z,6.33
2018-12-25T05:00:55.023Z,6.40
2018-12-25T05:03:43.102Z,6.37
2018-12-25T05:06:31.153Z,6.36
2018-12-25T05:09:00.060Z,6.32
2018-12-25T05:11:29.066Z,6.24
2018-12-25T05:14:17.101Z,6.24
2018-12-25T05:17:05.182Z,6.18
2018-12-25T05:19:53.222Z,6.12
2018-12-25T05:22:22.217Z,6.07
2018-12-25T05:25:10.293Z,6.01
2018-12-25T05:27:58.461Z,6.00
2018-12-25T05:30:46.501Z,6.06
2018-12-25T05:33:34.956Z,6.03
2018-12-25T05:36:23.045Z,6.11
2018-12-25T05:39:11.577Z,6.17
2018-12-25T05:41:59.620Z,6.19
2018-12-25T05:44:28.869Z,6.19
2018-12-25T05:47:17.057Z,6.07
2018-12-25T05:50:05.115Z,6.08
2018-12-25T05:52:53.085Z,6.04
2018-12-25T05:55:41.077Z,6.05
2018-12-25T05:58:29.130Z,6.02
2018-12-25T06:01:17.069Z,5.99
2018-12-25T06:04:05.105Z,5.95
2018-12-25T06:06:53.177Z,5.89
2018-12-25T06:09:41.194Z,5.85
2018-12-25T06:12:29.285Z,5.87
2018-12-25T06:18:24.494Z,5.88
2018-12-25T06:21:12.400Z,5.80
2018-12-25T06:24:00.505Z,5.80
2018-12-25T06:26:48.404Z,5.89
2018-12-25T06:29:36.486Z,5.91
2018-12-25T06:32:24.095Z,5.92
2018-12-25T06:35:12.193Z,5.89
2018-12-25T06:38:00.250Z,5.95
2018-12-25T06:40:29.159Z,5.89
2018-12-25T06:43:17.055Z,5.92
2018-12-25T06:46:05.129Z,5.91
2018-12-25T06:52:00.561Z,5.99
2018-12-25T06:54:48.861Z,6.01
2018-12-25T06:57:37.102Z,5.99
2018-12-25T07:00:07.134Z,6.02
2018-12-25T07:02:56.125Z,5.99
2018-12-25T07:05:44.063Z,5.96
2018-12-25T07:08:32.001Z,5.97
2018-12-25T07:11:20.106Z,5.95
2018-12-25T07:14:08.178Z,5.94
2018-12-25T07:16:56.211Z,5.88
2018-12-25T07:19:44.425Z,5.89
2018-12-25T07:22:32.820Z,5.89
2018-12-25T07:25:20.726Z,5.92
2018-12-25T07:28:08.807Z,5.88
2018-12-25T07:30:56.876Z,5.85
2018-12-25T07:33:45.010Z,5.87
2018-12-25T07:36:33.047Z,5.81
2018-12-25T07:42:14.637Z,5.80
2018-12-25T07:45:02.733Z,5.79
2018-12-25T07:47:50.769Z,5.83
2018-12-25T07:50:38.847Z,5.78
2018-12-25T07:53:26.794Z,5.78
2018-12-25T07:56:14.834Z,5.79
2018-12-25T07:59:02.906Z,5.83
2018-12-25T08:04:58.073Z,5.89
2018-12-25T08:07:46.142Z,5.97
2018-12-25T08:10:15.403Z,6.07
2018-12-25T08:13:03.438Z,6.05
2018-12-25T08:15:51.538Z,6.09
2018-12-25T08:18:40.249Z,6.09
2018-12-25T08:21:29.763Z,6.15
2018-12-25T08:24:17.959Z,6.18
2018-12-25T08:27:06.066Z,6.22
2018-12-25T08:29:53.944Z,6.25
2018-12-25T08:32:42.021Z,6.29
2018-12-25T08:38:37.222Z,6.40
2018-12-25T08:41:25.260Z,6.46
2018-12-25T08:44:13.325Z,6.52
2018-12-25T08:49:54.943Z,6.54
2018-12-25T08:52:43.358Z,6.65
2018-12-25T08:55:31.673Z,6.66
2018-12-25T08:58:19.615Z,6.75
2018-12-25T09:04:14.822Z,6.82
2018-12-25T09:07:02.858Z,6.99
2018-12-25T09:09:31.794Z,6.94
2018-12-25T09:12:19.831Z,7.03
2018-12-25T09:15:07.775Z,7.07
2018-12-25T09:17:56.207Z,7.09
2018-12-25T09:23:51.678Z,7.13
2018-12-25T09:26:20.550Z,7.14
2018-12-25T09:29:08.660Z,7.14
2018-12-25T09:35:04.290Z,7.13
2018-12-25T09:37:52.361Z,7.07
2018-12-25T09:40:40.306Z,7.19
2018-12-25T09:43:28.204Z,7.21
2018-12-25T09:46:16.295Z,7.28
2018-12-25T09:49:04.205Z,7.13
2018-12-25T09:51:54.638Z,7.25
2018-12-25T09:54:41.995Z,7.16
2018-12-25T09:57:29.899Z,7.15
2018-12-25T10:00:17.993Z,7.17
2018-12-25T10:03:06.028Z,7.24
2018-12-25T10:05:54.097Z,7.29
2018-12-25T10:08:42.142Z,7.41
2018-12-25T10:11:30.158Z,7.37
2018-12-25T10:14:18.534Z,7.23
2018-12-25T10:17:06.570Z,7.23
2018-12-25T10:19:54.511Z,7.20
2018-12-25T10:22:42.555Z,7.31
2018-12-25T10:25:30.630Z,7.28
2018-12-25T10:28:18.757Z,7.39
2018-12-25T10:31:06.841Z,7.36
2018-12-25T10:33:54.902Z,7.33
2018-12-25T10:36:42.846Z,7.39
2018-12-25T10:39:30.886Z,7.33
2018-12-25T10:42:18.978Z,7.31
2018-12-25T10:45:06.913Z,7.38
2018-12-25T10:47:55.043Z,7.27
2018-12-25T10:50:43.070Z,7.28
2018-12-25T10:53:31.146Z,7.26
2018-12-25T10:56:19.218Z,7.26
2018-12-25T10:59:07.258Z,7.27
2018-12-25T11:01:55.990Z,7.27
2018-12-25T11:07:51.186Z,7.28
2018-12-25T11:10:39.239Z,7.18
2018-12-25T11:16:20.902Z,7.15
2018-12-25T11:19:08.977Z,7.14
2018-12-25T11:21:56.924Z,7.06
2018-12-25T11:27:52.441Z,7.03
2018-12-25T11:30:40.557Z,7.09
2018-12-25T11:33:28.647Z,7.14
2018-12-25T11:36:16.682Z,7.27
2018-12-25T11:39:05.469Z,7.34
2018-12-25T11:41:53.507Z,7.41
2018-12-25T11:44:41.762Z,7.40
2018-12-25T11:47:29.801Z,7.25
2018-12-25T11:50:18.007Z,7.31
2018-12-25T11:53:06.143Z,7.32
2018-12-25T11:59:01.336Z,7.34
2018-12-25T12:01:49.363Z,7.37
2018-12-25T12:04:37.299Z,7.38
2018-12-25T12:07:25.350Z,7.52
2018-12-25T12:10:13.427Z,7.48
2018-12-25T12:13:01.493Z,7.56
2018-12-25T12:15:49.546Z,7.38
2018-12-25T12:18:37.650Z,7.45
2018-12-25T12:24:33.259Z,7.50
2018-12-25T12:27:21.328Z,7.49
2018-12-25T12:30:09.397Z,7.49
2018-12-25T12:32:57.433Z,7.41
2018-12-25T12:35:45.515Z,7.48
2018-12-25T12:38:33.465Z,7.64
2018-12-25T12:41:21.517Z,7.48
2018-12-25T12:44:09.605Z,7.56
2018-12-25T12:46:57.701Z,7.54
2018-12-25T12:49:45.634Z,7.51
2018-12-25T12:55:40.814Z,7.39
2018-12-25T12:58:28.876Z,7.37
2018-12-25T13:01:16.911Z,7.40
2018-12-25T13:04:04.834Z,7.43
2018-12-25T13:06:52.930Z,7.50
2018-12-25T13:09:40.843Z,7.34
2018-12-25T13:12:28.932Z,7.41
2018-12-25T13:18:24.107Z,7.45
2018-12-25T13:20:53.089Z,7.45
2018-12-25T13:23:41.181Z,7.62
2018-12-25T13:26:29.254Z,7.46
2018-12-25T13:29:17.717Z,7.33
2018-12-25T13:32:05.793Z,7.32
2018-12-25T13:34:54.228Z,7.36
2018-12-25T13:40:49.390Z,7.32
2018-12-25T13:43:37.470Z,7.20
2018-12-25T13:46:25.556Z,7.25
2018-12-25T13:49:13.812Z,7.13
2018-12-25T13:52:01.896Z,7.20
2018-12-25T13:54:49.792Z,7.26
2018-12-25T13:57:37.858Z,7.27
2018-12-25T14:00:06.905Z,7.27
2018-12-25T14:02:35.925Z,7.38
2018-12-25T14:05:23.907Z,7.42
2018-12-25T14:08:11.858Z,7.37
2018-12-25T14:10:59.902Z,7.22
2018-12-25T14:13:48.338Z,7.36
2018-12-25T14:16:36.415Z,7.36
2018-12-25T14:22:31.611Z,7.29
2018-12-25T14:25:19.694Z,7.31
2018-12-25T14:28:07.766Z,7.33
2018-12-25T14:34:03.191Z,7.27
2018-12-25T14:36:51.243Z,7.27
2018-12-25T14:39:39.329Z,7.24
2018-12-25T14:45:34.507Z,7.15
2018-12-25T14:48:22.560Z,7.05
2018-12-25T14:51:10.648Z,7.04
2018-12-25T14:59:59.673Z,6.81
2018-12-25T15:02:47.757Z,6.80
2018-12-25T15:08:42.942Z,6.67
2018-12-25T15:11:31.016Z,6.58
2018-12-25T15:14:19.461Z,6.52
2018-12-25T15:17:07.485Z,6.45
2018-12-25T15:19:55.589Z,6.48
2018-12-25T15:22:43.559Z,6.54
2018-12-25T15:25:31.946Z,6.47
2018-12-25T15:28:20.037Z,6.48
2018-12-25T15:34:15.238Z,6.45
2018-12-25T15:37:03.386Z,6.48
2018-12-25T15:39:51.424Z,6.40
2018-12-25T15:42:39.510Z,6.38
2018-12-25T15:45:28.151Z,6.32
2018-12-25T15:48:16.282Z,6.40
2018-12-25T15:51:04.577Z,6.41
2018-12-25T15:53:52.518Z,6.44
2018-12-25T15:56:40.601Z,6.36
2018-12-25T15:59:28.732Z,6.34
2018-12-25T16:02:16.705Z,6.32
2018-12-25T16:05:04.718Z,6.23
2018-12-25T16:07:52.765Z,6.14
2018-12-25T16:10:40.851Z,6.07
2018-12-25T16:13:28.894Z,5.99
2018-12-25T16:16:17.217Z,5.94
2018-12-25T16:19:05.557Z,5.85
2018-12-25T16:21:53.587Z,5.80
2018-12-25T16:27:36.807Z,5.68
2018-12-25T16:30:07.662Z,5.65
2018-12-25T16:32:55.811Z,5.65
2018-12-25T16:35:43.709Z,5.64
2018-12-25T16:38:31.813Z,5.68
2018-12-25T16:41:19.902Z,5.75
2018-12-25T16:44:07.945Z,5.85
2018-12-25T16:46:56.025Z,5.90
2018-12-25T16:49:36.661Z,5.95
2018-12-25T16:52:24.754Z,5.91
2018-12-25T16:58:19.951Z,5.76
2018-12-25T17:01:08.339Z,5.72
2018-12-25T17:03:56.335Z,5.68
2018-12-25T17:06:44.414Z,5.66
2018-12-25T17:09:32.498Z,5.65
2018-12-25T17:12:20.575Z,5.70
2018-12-25T17:15:08.514Z,5.75
2018-12-25T17:17:56.598Z,5.81
2018-12-25T17:20:44.639Z,5.89
2018-12-25T17:23:32.725Z,5.95
2018-12-25T17:26:20.826Z,6.00
2018-12-25T17:32:02.937Z,6.10
2018-12-25T17:34:51.399Z,6.09
2018-12-25T17:37:39.875Z,6.11
2018-12-25T17:40:27.939Z,6.13
2018-12-25T17:43:15.978Z,6.19
2018-12-25T17:46:04.170Z,6.16
2018-12-25T17:48:33.070Z,6.11
2018-12-25T17:51:21.121Z,6.16
2018-12-25T17:57:02.456Z,6.17
2018-12-25T17:59:50.530Z,6.17
2018-12-25T18:02:38.961Z,6.16
2018-12-25T18:08:34.149Z,6.20
2018-12-25T18:11:22.594Z,6.15
2018-12-25T18:17:18.971Z,6.18
2018-12-25T18:20:07.618Z,6.27
2018-12-25T18:22:55.518Z,6.30
2018-12-25T18:25:43.675Z,6.33
2018-12-25T18:28:32.059Z,6.39
2018-12-25T18:31:20.149Z,6.42
2018-12-25T18:34:08.182Z,6.47
2018-12-25T18:36:56.125Z,6.51
2018-12-25T18:39:44.166Z,6.56
2018-12-25T18:42:32.314Z,6.55
2018-12-25T18:45:20.523Z,6.58
2018-12-25T18:48:08.741Z,6.62
2018-12-25T18:50:56.852Z,6.63
2018-12-25T18:53:25.829Z,6.61
2018-12-25T18:56:14.023Z,6.60
2018-12-25T18:59:02.071Z,6.58
2018-12-25T19:01:50.147Z,6.56
2018-12-25T19:04:38.128Z,6.55
2018-12-25T19:07:26.090Z,6.51
2018-12-25T19:10:14.186Z,6.54
2018-12-25T19:16:10.445Z,6.56
2018-12-25T19:18:58.839Z,6.56
2018-12-25T19:21:46.740Z,6.56
2018-12-25T19:24:36.372Z,6.57
2018-12-25T19:30:31.930Z,6.62
2018-12-25T19:36:27.151Z,6.62
2018-12-25T19:39:15.563Z,6.67
2018-12-25T19:42:03.523Z,6.65
2018-12-25T19:44:51.528Z,6.66
2018-12-25T19:47:39.621Z,6.68
2018-12-25T19:50:27.639Z,6.67
2018-12-25T19:53:27.770Z,6.67
2018-12-25T19:56:05.799Z,6.68
2018-12-25T19:58:34.834Z,6.73
2018-12-25T20:01:22.970Z,6.71
2018-12-25T20:04:16.526Z,6.73
2018-12-25T20:07:23.712Z,6.73
2018-12-25T20:13:30.783Z,6.81
2018-12-25T20:16:37.929Z,6.85
2018-12-25T20:19:45.143Z,6.82
2018-12-25T20:22:52.286Z,6.85
2018-12-25T20:25:59.506Z,6.86
2018-12-25T20:29:04.591Z,6.83
2018-12-25T20:32:11.839Z,6.86
2018-12-25T20:35:19.030Z,6.83
2018-12-25T20:42:00.515Z,6.87
2018-12-25T20:45:07.698Z,6.85
2018-12-25T20:48:14.885Z,6.86
2018-12-25T20:51:22.111Z,6.87
2018-12-25T20:54:29.299Z,6.83
2018-12-25T20:57:36.472Z,6.90
2018-12-25T21:00:43.749Z,6.84
2018-12-25T21:07:29.612Z,6.83
2018-12-25T21:10:36.749Z,6.80
2018-12-25T21:13:43.931Z,6.79
2018-12-25T21:16:51.086Z,6.79
2018-12-25T21:19:58.280Z,6.75
2018-12-25T21:23:05.458Z,6.74
2018-12-25T21:26:12.641Z,6.68
2018-12-25T21:28:41.756Z,6.71
2018-12-25T21:34:58.758Z,6.71
2018-12-25T21:37:46.752Z,6.71
2018-12-25T21:46:06.102Z,6.67
2018-12-25T21:48:54.138Z,6.68
2018-12-25T21:52:02.631Z,6.72
2018-12-25T21:54:50.987Z,6.69
2018-12-25T21:57:20.009Z,6.69
2018-12-25T21:59:49.070Z,6.63
2018-12-25T22:02:37.167Z,6.67
2018-12-25T22:05:25.394Z,6.67
2018-12-25T22:08:13.479Z,6.66
2018-12-25T22:11:01.551Z,6.62
2018-12-25T22:13:49.965Z,6.60
2018-12-25T22:16:38.081Z,6.65
2018-12-25T22:19:26.405Z,6.64
2018-12-25T22:25:08.459Z,6.67
2018-12-25T22:27:56.546Z,6.69
2018-12-25T22:30:44.581Z,6.64
2018-12-25T22:33:32.667Z,6.72
2018-12-25T22:36:20.737Z,6.68
2018-12-25T22:39:08.779Z,6.68
2018-12-25T22:41:58.624Z,6.72
2018-12-25T22:44:46.607Z,6.67
2018-12-25T22:47:34.602Z,6.72
2018-12-25T22:50:22.752Z,6.77
2018-12-25T22:56:17.887Z,6.75
2018-12-25T22:59:05.981Z,6.79
2018-12-25T23:01:54.069Z,6.77
2018-12-25T23:07:49.187Z,6.79
2018-12-25T23:10:37.285Z,6.87
2018-12-25T23:13:25.299Z,6.84
2018-12-25T23:19:20.481Z,6.92
2018-12-25T23:22:08.784Z,6.95
2018-12-25T23:24:56.704Z,6.93
2018-12-25T23:27:44.651Z,7.02
2018-12-25T23:30:32.700Z,7.02
2018-12-25T23:35:54.866Z,7.05
2018-12-25T23:41:50.051Z,7.14
2018-12-25T23:44:38.137Z,7.12
2018-12-25T23:47:26.242Z,7.16
2018-12-25T23:50:14.286Z,7.20
2018-12-25T23:53:02.493Z,7.22
2018-12-25T23:55:53.048Z,7.23
2018-12-25T23:58:41.999Z,7.23
